CheckWX is a tool to help pilots better visualize weather data.  It is not intended as a substitute for an official pre-flight weather briefing.

15:16:31 UTC

CYQH METAR
Watson Lake Airport
Watson Lake, Canada
Current

1 hour ago

CYQH 201400Z 28003KT 40SM FEW080 OVC120 09/04 A2984 RMK AC1AC7 SLP115
Observed
May-20 @ 14:00 UTC
Wind
  • 280° at 3 KTS
Visibility
40 SM
Flight Rules
VFR
Cloud Levels
  • Few at 8,000' AGL
  • Overcast at 12,000' AGL
Temperature
C / 48°F
Dewpoint
C / 39°F
Humidity
71%
Altimeter
29.84" Hg
Pressure
1010.52 hPa
Previous

2 hours ago

CYQH 201300Z 29004KT 35SM SCT120 BKN230 08/04 A2983 RMK AC3CI3 SLP116
Observed
May-20 @ 13:00 UTC
Wind
  • 290° at 4 KTS
Visibility
35 SM
Flight Rules
VFR
Cloud Levels
  • Scattered at 12,000' AGL
  • Broken at 23,000' AGL
Temperature
C / 46°F
Dewpoint
C / 39°F
Humidity
76%
Altimeter
29.83" Hg
Pressure
1010.12 hPa
Previous

3 hours ago

CYQH 201200Z 27004KT 30SM SCT120 OVC230 07/05 A2982 RMK AC3CI5 CLIMAT 15.3/6.9/0.0 SLP113
Observed
May-20 @ 12:00 UTC
Wind
  • 270° at 4 KTS
Visibility
30 SM
Flight Rules
VFR
Cloud Levels
  • Scattered at 12,000' AGL
  • Overcast at 23,000' AGL
Temperature
C / 45°F
Dewpoint
C / 41°F
Humidity
87%
Altimeter
29.82" Hg
Pressure
1009.82 hPa